createdAt,value
2019-02-09T00:00:34.421Z,82.57
2019-02-09T00:03:08.483Z,75.17
2019-02-09T00:05:41.971Z,76.80
2019-02-09T00:08:14.820Z,78.10
2019-02-09T00:10:47.558Z,82.33
2019-02-09T00:13:20.586Z,83.67
2019-02-09T00:15:53.486Z,79.90
2019-02-09T00:18:26.876Z,77.53
2019-02-09T00:20:59.421Z,78.13
2019-02-09T00:23:31.898Z,78.87
2019-02-09T00:26:05.095Z,82.93
2019-02-09T00:28:37.604Z,75.07
2019-02-09T00:31:10.000Z,81.93
2019-02-09T00:33:42.531Z,80.53
2019-02-09T00:36:15.707Z,87.70
2019-02-09T00:38:48.195Z,81.47
2019-02-09T00:41:20.742Z,80.90
2019-02-09T00:43:54.558Z,78.90
2019-02-09T00:46:27.070Z,80.47
2019-02-09T00:48:59.746Z,86.47
2019-02-09T00:51:32.163Z,77.70
2019-02-09T00:54:04.893Z,77.83
2019-02-09T00:56:37.989Z,82.30
2019-02-09T00:59:10.633Z,76.53
2019-02-09T01:01:43.339Z,79.00
2019-02-09T01:04:15.860Z,82.13
2019-02-09T01:06:49.542Z,84.20
2019-02-09T01:09:22.041Z,86.20
2019-02-09T01:11:54.442Z,87.63
2019-02-09T01:14:27.538Z,88.30
2019-02-09T01:16:59.945Z,89.90
2019-02-09T01:19:32.707Z,89.63
2019-02-09T01:22:05.445Z,94.77
2019-02-09T01:24:37.787Z,87.20
2019-02-09T01:27:10.258Z,82.83
2019-02-09T01:29:42.756Z,90.73
2019-02-09T01:32:15.374Z,90.50
2019-02-09T01:34:47.703Z,87.13
2019-02-09T01:37:20.442Z,95.13
2019-02-09T01:39:53.016Z,80.73
2019-02-09T01:42:25.611Z,89.37
2019-02-09T01:44:58.096Z,87.57
2019-02-09T01:47:31.297Z,91.80
2019-02-09T01:50:03.713Z,87.10
2019-02-09T01:52:35.988Z,87.10
2019-02-09T01:55:09.629Z,93.23
2019-02-09T01:57:42.038Z,89.90
2019-02-09T02:00:24.504Z,85.53
2019-02-09T02:02:57.179Z,85.37
2019-02-09T02:05:29.962Z,91.87
2019-02-09T02:08:02.654Z,90.63
2019-02-09T02:10:38.099Z,117.70
2019-02-09T02:13:12.166Z,89.47
2019-02-09T02:15:45.364Z,87.83
2019-02-09T02:18:17.970Z,91.07
2019-02-09T02:20:50.419Z,86.60
2019-02-09T02:23:22.837Z,93.17
2019-02-09T02:25:55.331Z,88.57
2019-02-09T02:28:27.649Z,83.73
2019-02-09T02:31:00.064Z,90.00
2019-02-09T02:33:32.761Z,95.93
2019-02-09T02:36:05.203Z,93.10
2019-02-09T02:38:37.732Z,92.47
2019-02-09T02:41:10.354Z,92.60
2019-02-09T02:43:42.957Z,100.53
2019-02-09T02:46:15.443Z,93.73
2019-02-09T02:48:47.964Z,94.13
2019-02-09T02:51:20.486Z,97.17
2019-02-09T02:53:53.341Z,98.33
2019-02-09T02:56:25.835Z,98.27
2019-02-09T02:58:58.189Z,96.10
2019-02-09T03:01:30.678Z,98.47
2019-02-09T03:04:05.091Z,97.77
2019-02-09T03:06:37.643Z,99.50
2019-02-09T03:09:11.138Z,92.43
2019-02-09T03:11:43.449Z,93.47
2019-02-09T03:14:15.785Z,99.87
2019-02-09T03:16:48.364Z,105.23
2019-02-09T03:19:21.422Z,92.50
2019-02-09T03:21:54.113Z,94.70
2019-02-09T03:24:26.704Z,101.60
2019-02-09T03:26:59.199Z,91.13
2019-02-09T03:29:32.516Z,99.83
2019-02-09T03:32:05.205Z,89.33
2019-02-09T03:34:37.684Z,104.17
2019-02-09T03:37:10.243Z,92.23
2019-02-09T03:39:42.656Z,98.17
2019-02-09T03:42:15.150Z,99.20
2019-02-09T03:44:48.096Z,90.63
2019-02-09T03:47:21.370Z,91.77
2019-02-09T03:49:53.991Z,97.30
2019-02-09T03:52:26.718Z,99.87
2019-02-09T03:54:59.547Z,96.30
2019-02-09T03:57:31.858Z,96.67
2019-02-09T04:00:06.541Z,87.13
2019-02-09T04:02:40.964Z,94.60
2019-02-09T04:05:14.689Z,90.90
2019-02-09T04:07:47.410Z,93.47
2019-02-09T04:10:22.351Z,91.13
2019-02-09T04:12:54.799Z,95.77
2019-02-09T04:15:28.089Z,95.13
2019-02-09T04:18:00.420Z,106.03
2019-02-09T04:20:33.010Z,95.37
2019-02-09T04:23:05.962Z,96.87
2019-02-09T04:25:38.386Z,92.87
2019-02-09T04:28:10.947Z,90.17
2019-02-09T04:30:43.633Z,100.00
2019-02-09T04:33:16.232Z,94.97
2019-02-09T04:35:48.814Z,89.50
2019-02-09T04:38:21.705Z,93.93
2019-02-09T04:40:54.256Z,89.77
2019-02-09T04:43:26.667Z,98.43
2019-02-09T04:45:59.027Z,95.27
2019-02-09T04:48:32.242Z,93.53
2019-02-09T04:51:04.600Z,96.20
2019-02-09T04:53:37.570Z,87.87
2019-02-09T04:56:11.684Z,91.73
2019-02-09T04:58:44.534Z,90.93
2019-02-09T05:01:17.203Z,89.13
2019-02-09T05:03:49.744Z,96.63
2019-02-09T05:06:22.398Z,88.43
2019-02-09T05:08:54.975Z,96.37
2019-02-09T05:11:27.686Z,93.93
2019-02-09T05:14:00.195Z,93.93
2019-02-09T05:16:32.699Z,92.67
2019-02-09T05:19:05.244Z,90.70
2019-02-09T05:21:37.933Z,87.07
2019-02-09T05:24:10.753Z,89.97
2019-02-09T05:26:43.186Z,93.03
2019-02-09T05:29:15.720Z,88.20
2019-02-09T05:31:48.380Z,91.90
2019-02-09T05:34:20.756Z,86.00
2019-02-09T05:37:01.514Z,98.93
2019-02-09T05:39:34.347Z,85.97
2019-02-09T05:42:07.243Z,89.43
2019-02-09T05:44:39.923Z,92.27
2019-02-09T05:47:12.404Z,81.33
2019-02-09T05:49:45.063Z,89.57
2019-02-09T05:52:17.563Z,89.87
2019-02-09T05:54:50.006Z,89.47
2019-02-09T05:57:22.509Z,93.63
2019-02-09T05:59:54.993Z,89.43
2019-02-09T06:02:27.359Z,84.60
2019-02-09T06:04:59.904Z,86.20
2019-02-09T06:07:32.290Z,84.20
2019-02-09T06:10:08.560Z,88.43
2019-02-09T06:12:41.082Z,84.80
2019-02-09T06:15:15.074Z,81.43
2019-02-09T06:17:47.670Z,87.60
2019-02-09T06:20:24.398Z,137.30
2019-02-09T06:22:59.382Z,85.10
2019-02-09T06:25:31.893Z,89.57
2019-02-09T06:28:04.739Z,82.80
2019-02-09T06:30:37.167Z,80.70
2019-02-09T06:33:09.683Z,106.03
2019-02-09T06:35:42.081Z,108.90
2019-02-09T06:38:14.961Z,94.07
2019-02-09T06:40:47.629Z,80.60
2019-02-09T06:43:20.060Z,80.63
2019-02-09T06:45:52.626Z,111.93
2019-02-09T06:48:28.312Z,97.90
2019-02-09T06:51:02.391Z,74.13
2019-02-09T06:53:34.905Z,81.33
2019-02-09T06:56:07.634Z,73.67
2019-02-09T06:58:40.197Z,85.03
2019-02-09T07:01:12.507Z,76.63
2019-02-09T07:03:45.086Z,80.20
2019-02-09T07:06:17.889Z,82.90
2019-02-09T07:08:50.433Z,75.40
2019-02-09T07:11:22.836Z,83.10
2019-02-09T07:13:55.284Z,82.73
2019-02-09T07:16:28.182Z,79.73
2019-02-09T07:19:00.510Z,73.67
2019-02-09T07:21:33.007Z,75.47
2019-02-09T07:24:06.113Z,75.90
2019-02-09T07:26:38.676Z,74.73
2019-02-09T07:29:11.168Z,76.20
2019-02-09T07:31:43.872Z,72.70
2019-02-09T07:34:16.480Z,71.77
2019-02-09T07:36:49.650Z,75.53
2019-02-09T07:39:22.229Z,78.80
2019-02-09T07:41:54.698Z,80.17
2019-02-09T07:44:27.336Z,72.47
2019-02-09T07:47:00.648Z,72.87
2019-02-09T07:49:33.313Z,68.20
2019-02-09T07:52:06.108Z,72.60
2019-02-09T07:54:38.696Z,68.37
2019-02-09T07:57:11.424Z,68.23
2019-02-09T07:59:43.951Z,65.10
2019-02-09T08:02:16.717Z,66.00
2019-02-09T08:04:49.447Z,68.23
2019-02-09T08:07:22.086Z,74.17
2019-02-09T08:09:54.480Z,68.57
2019-02-09T08:12:27.465Z,67.03
2019-02-09T08:15:00.345Z,69.37
2019-02-09T08:17:33.184Z,65.57
2019-02-09T08:20:06.667Z,66.37
2019-02-09T08:22:39.189Z,67.43
2019-02-09T08:25:15.610Z,65.13
2019-02-09T08:27:48.835Z,69.10
2019-02-09T08:30:25.020Z,71.90
2019-02-09T08:32:58.000Z,64.07
2019-02-09T08:35:30.624Z,63.53
2019-02-09T08:38:03.299Z,64.47
2019-02-09T08:40:36.002Z,61.13
2019-02-09T08:43:08.737Z,62.10
2019-02-09T08:45:41.429Z,66.07
2019-02-09T08:48:14.237Z,60.40
2019-02-09T08:50:55.542Z,65.90
2019-02-09T08:53:28.574Z,62.93
2019-02-09T08:56:01.269Z,64.97
2019-02-09T08:58:33.958Z,77.87
2019-02-09T09:01:07.851Z,68.70
2019-02-09T09:03:40.198Z,63.83
2019-02-09T09:06:12.939Z,70.77
2019-02-09T09:08:45.341Z,68.03
2019-02-09T09:11:17.749Z,61.40
2019-02-09T09:13:50.544Z,64.60
2019-02-09T09:16:23.113Z,63.47
2019-02-09T09:18:55.653Z,66.13
2019-02-09T09:21:28.480Z,88.87
2019-02-09T09:24:00.909Z,94.40
2019-02-09T09:26:33.380Z,94.37
2019-02-09T09:29:05.864Z,71.67
2019-02-09T09:31:38.550Z,73.67
2019-02-09T09:34:11.458Z,65.03
2019-02-09T09:36:44.039Z,80.90
2019-02-09T09:39:16.718Z,68.40
2019-02-09T09:41:49.361Z,69.50
2019-02-09T09:44:21.814Z,69.87
2019-02-09T09:46:54.344Z,70.77
2019-02-09T09:49:39.391Z,67.67
2019-02-09T09:52:23.100Z,64.20
2019-02-09T09:55:08.175Z,66.67
2019-02-09T09:57:40.958Z,62.23
2019-02-09T10:00:15.757Z,62.17
2019-02-09T10:02:48.604Z,65.87
2019-02-09T10:05:21.237Z,64.43
2019-02-09T10:07:53.573Z,72.97
2019-02-09T10:10:26.896Z,68.53
2019-02-09T10:12:59.423Z,68.00
2019-02-09T10:15:31.967Z,65.47
2019-02-09T10:18:05.196Z,65.77
2019-02-09T10:20:37.670Z,73.00
2019-02-09T10:23:10.200Z,70.13
2019-02-09T10:25:42.828Z,68.20
2019-02-09T10:28:15.550Z,68.00
2019-02-09T10:30:48.075Z,65.13
2019-02-09T10:33:20.850Z,76.33
2019-02-09T10:35:54.828Z,75.43
2019-02-09T10:38:27.285Z,66.93
2019-02-09T10:40:59.614Z,80.60
2019-02-09T10:43:32.075Z,89.37
2019-02-09T10:46:04.826Z,81.47
2019-02-09T10:48:37.358Z,73.50
2019-02-09T10:51:09.988Z,66.77
2019-02-09T10:53:42.770Z,87.53
2019-02-09T10:56:15.276Z,85.67
2019-02-09T10:58:47.969Z,94.47
2019-02-09T11:01:23.329Z,76.40
2019-02-09T11:03:55.951Z,78.63
2019-02-09T11:06:28.603Z,78.63
2019-02-09T11:09:01.286Z,86.13
2019-02-09T11:11:33.972Z,96.70
2019-02-09T11:14:06.899Z,80.97
2019-02-09T11:16:39.823Z,99.27
2019-02-09T11:19:12.232Z,74.90
2019-02-09T11:21:44.988Z,80.60
2019-02-09T11:24:17.500Z,75.03
2019-02-09T11:26:50.079Z,76.87
2019-02-09T11:29:22.597Z,76.20
2019-02-09T11:31:55.564Z,73.87
2019-02-09T11:34:27.959Z,67.83
2019-02-09T11:37:00.424Z,75.20
2019-02-09T11:39:33.032Z,72.13
2019-02-09T11:42:06.116Z,65.67
2019-02-09T11:44:41.214Z,68.87
2019-02-09T11:47:12.892Z,65.83
2019-02-09T11:49:45.594Z,66.30
2019-02-09T11:52:18.023Z,63.20
2019-02-09T11:54:50.532Z,63.50
2019-02-09T11:57:22.960Z,63.37
2019-02-09T11:59:56.099Z,63.23
2019-02-09T12:02:28.692Z,67.00
2019-02-09T12:05:01.260Z,63.87
2019-02-09T12:07:33.768Z,66.67
2019-02-09T12:10:07.349Z,61.50
2019-02-09T12:12:39.839Z,64.03
2019-02-09T12:15:17.476Z,65.33
2019-02-09T12:17:50.228Z,64.57
2019-02-09T12:20:22.963Z,72.03
2019-02-09T12:22:55.488Z,62.93
2019-02-09T12:25:33.587Z,63.20
2019-02-09T12:28:08.978Z,62.00
2019-02-09T12:30:42.129Z,62.20
2019-02-09T12:33:22.944Z,63.70
2019-02-09T12:35:49.419Z,64.87
2019-02-09T12:38:21.920Z,58.03
2019-02-09T12:40:54.387Z,58.40
2019-02-09T12:43:27.022Z,61.03
2019-02-09T12:45:59.693Z,58.60
2019-02-09T12:48:32.383Z,55.90
2019-02-09T12:51:04.877Z,56.00
2019-02-09T12:53:37.608Z,56.43
2019-02-09T12:56:10.241Z,57.97
2019-02-09T12:58:43.000Z,60.17
2019-02-09T13:01:15.830Z,54.80
2019-02-09T13:03:48.183Z,53.57
2019-02-09T13:06:21.269Z,55.87
2019-02-09T13:08:53.648Z,54.63
2019-02-09T13:11:26.240Z,58.67
2019-02-09T13:13:58.642Z,59.23
2019-02-09T13:16:31.484Z,57.40
2019-02-09T13:19:05.968Z,54.77
2019-02-09T13:21:38.571Z,51.97
2019-02-09T13:24:12.460Z,52.33
2019-02-09T13:26:44.832Z,56.97
2019-02-09T13:29:17.971Z,55.20
2019-02-09T13:31:50.419Z,55.07
2019-02-09T13:34:23.253Z,53.83
2019-02-09T13:36:55.688Z,55.50
2019-02-09T13:39:28.267Z,53.90
2019-02-09T13:42:00.891Z,57.47
2019-02-09T13:44:33.300Z,55.10
2019-02-09T13:47:05.885Z,51.97
2019-02-09T13:49:38.197Z,52.20
2019-02-09T13:52:10.794Z,57.03
2019-02-09T13:54:43.255Z,51.67
2019-02-09T13:57:15.809Z,54.40
2019-02-09T13:59:48.263Z,55.00
2019-02-09T14:02:20.641Z,57.53
2019-02-09T14:04:52.986Z,53.70
2019-02-09T14:07:25.383Z,53.83
2019-02-09T14:09:57.858Z,58.80
2019-02-09T14:12:30.474Z,51.30
2019-02-09T14:15:02.903Z,50.03
2019-02-09T14:17:35.679Z,57.07
2019-02-09T14:20:09.254Z,54.23
2019-02-09T14:22:42.053Z,59.93
2019-02-09T14:25:15.381Z,51.50
2019-02-09T14:27:49.479Z,52.97
2019-02-09T14:30:26.658Z,60.67
2019-02-09T14:32:59.584Z,58.00
2019-02-09T14:35:32.159Z,57.37
2019-02-09T14:38:05.709Z,50.17
2019-02-09T14:40:38.327Z,55.60
2019-02-09T14:43:11.596Z,55.27
2019-02-09T14:45:45.472Z,54.20
2019-02-09T14:48:18.068Z,55.63
2019-02-09T14:50:50.523Z,57.97
2019-02-09T14:53:23.328Z,59.90
2019-02-09T14:55:55.722Z,52.47
2019-02-09T14:58:28.187Z,59.47
2019-02-09T15:01:00.851Z,54.77
2019-02-09T15:03:33.604Z,56.20
2019-02-09T15:06:06.751Z,52.43
2019-02-09T15:08:39.426Z,58.07
2019-02-09T15:11:12.153Z,61.50
2019-02-09T15:13:44.944Z,57.27
2019-02-09T15:16:33.634Z,59.80
2019-02-09T15:19:06.440Z,52.40
2019-02-09T15:21:38.969Z,66.70
2019-02-09T15:24:11.340Z,57.60
2019-02-09T15:26:44.077Z,54.23
2019-02-09T15:29:16.743Z,54.17
2019-02-09T15:31:49.199Z,77.83
2019-02-09T15:34:22.100Z,52.43
2019-02-09T15:36:54.525Z,56.43
2019-02-09T15:39:27.280Z,56.03
2019-02-09T15:41:59.821Z,56.47
2019-02-09T15:44:32.327Z,51.50
2019-02-09T15:47:04.757Z,58.77
2019-02-09T15:49:37.216Z,55.03
2019-02-09T15:52:09.965Z,54.73
2019-02-09T15:54:42.398Z,59.80
2019-02-09T15:57:15.052Z,55.80
2019-02-09T15:59:47.616Z,61.53
2019-02-09T16:02:19.759Z,62.50
2019-02-09T16:04:52.259Z,67.37
2019-02-09T16:07:25.178Z,58.93
2019-02-09T16:09:59.138Z,56.50
2019-02-09T16:12:31.889Z,61.53
2019-02-09T16:15:04.640Z,58.30
2019-02-09T16:17:37.467Z,60.43
2019-02-09T16:20:12.551Z,56.00
2019-02-09T16:22:45.240Z,59.67
2019-02-09T16:25:18.195Z,62.53
2019-02-09T16:27:50.866Z,64.33
2019-02-09T16:30:25.230Z,66.33
2019-02-09T16:32:58.148Z,60.70
2019-02-09T16:35:30.737Z,65.70
2019-02-09T16:38:03.162Z,57.03
2019-02-09T16:40:35.846Z,57.20
2019-02-09T16:43:08.696Z,55.97
2019-02-09T16:45:41.803Z,66.80
2019-02-09T16:48:17.272Z,82.27
2019-02-09T16:50:49.697Z,67.30
2019-02-09T16:53:22.324Z,64.67
2019-02-09T16:55:54.831Z,56.43
2019-02-09T16:58:27.586Z,57.30
2019-02-09T17:01:00.132Z,59.53
2019-02-09T17:03:32.735Z,59.10
2019-02-09T17:06:05.684Z,58.50
2019-02-09T17:08:38.555Z,57.13
2019-02-09T17:11:11.042Z,57.00
2019-02-09T17:13:43.479Z,51.47
2019-02-09T17:16:16.088Z,55.83
2019-02-09T17:18:48.670Z,54.03
2019-02-09T17:21:21.127Z,57.93
2019-02-09T17:23:53.683Z,56.90
2019-02-09T17:26:26.193Z,58.03
2019-02-09T17:29:00.342Z,57.10
2019-02-09T17:31:32.723Z,59.03
2019-02-09T17:34:05.523Z,62.20
2019-02-09T17:36:38.289Z,61.23
2019-02-09T17:39:11.083Z,57.07
2019-02-09T17:41:43.845Z,55.87
2019-02-09T17:44:16.286Z,57.20
2019-02-09T17:46:48.983Z,54.60
2019-02-09T17:49:21.877Z,58.33
2019-02-09T17:51:54.430Z,56.13
2019-02-09T17:54:26.881Z,56.20
2019-02-09T17:56:59.340Z,70.33
2019-02-09T17:59:32.396Z,64.83
2019-02-09T18:02:04.922Z,57.77
2019-02-09T18:04:37.351Z,134.00
2019-02-09T18:07:10.013Z,84.07
2019-02-09T18:09:43.204Z,70.27
2019-02-09T18:12:15.540Z,55.47
2019-02-09T18:14:48.249Z,56.80
2019-02-09T18:17:21.153Z,54.97
2019-02-09T18:19:53.941Z,65.97
2019-02-09T18:22:26.572Z,65.90
2019-02-09T18:24:59.253Z,60.20
2019-02-09T18:27:32.249Z,64.33
2019-02-09T18:30:06.357Z,64.40
2019-02-09T18:32:39.163Z,66.00
2019-02-09T18:35:11.849Z,62.77
2019-02-09T18:37:44.433Z,68.33
2019-02-09T18:40:21.035Z,67.43
2019-02-09T18:42:53.648Z,69.30
2019-02-09T18:45:28.370Z,76.73
2019-02-09T18:48:01.095Z,75.50
2019-02-09T18:50:33.684Z,69.67
2019-02-09T18:53:06.395Z,67.97
2019-02-09T18:55:38.905Z,63.17
2019-02-09T18:58:11.428Z,67.00
2019-02-09T19:00:44.280Z,67.03
2019-02-09T19:03:17.142Z,62.00
2019-02-09T19:05:50.008Z,64.23
2019-02-09T19:08:22.359Z,65.00
2019-02-09T19:10:54.926Z,59.67
2019-02-09T19:13:27.436Z,66.57
2019-02-09T19:16:00.207Z,118.43
2019-02-09T19:18:32.700Z,140.10
2019-02-09T19:21:07.213Z,70.90
2019-02-09T19:23:39.597Z,68.97
2019-02-09T19:26:12.328Z,71.87
2019-02-09T19:28:44.745Z,66.93
2019-02-09T19:31:18.403Z,76.07
2019-02-09T19:33:51.007Z,69.83
2019-02-09T19:36:23.403Z,74.07
2019-02-09T19:38:55.755Z,68.53
2019-02-09T19:41:28.342Z,62.03
2019-02-09T19:44:01.047Z,67.47
2019-02-09T19:46:33.657Z,64.27
2019-02-09T19:49:06.347Z,72.43
2019-02-09T19:51:39.035Z,88.73
2019-02-09T19:54:11.561Z,85.40
2019-02-09T19:56:44.028Z,83.73
2019-02-09T19:59:16.502Z,82.07
2019-02-09T20:01:49.408Z,89.97
2019-02-09T20:04:22.084Z,79.00
2019-02-09T20:06:54.982Z,81.07
2019-02-09T20:09:27.363Z,81.13
2019-02-09T20:12:00.261Z,82.17
2019-02-09T20:14:32.652Z,79.20
2019-02-09T20:17:05.117Z,73.87
2019-02-09T20:19:37.488Z,77.70
2019-02-09T20:22:10.341Z,89.53
2019-02-09T20:24:42.859Z,95.53
2019-02-09T20:27:16.751Z,85.37
2019-02-09T20:29:49.339Z,81.27
2019-02-09T20:32:21.818Z,74.33
2019-02-09T20:34:54.405Z,79.33
2019-02-09T20:37:26.977Z,77.20
2019-02-09T20:39:59.407Z,75.90
2019-02-09T20:42:31.839Z,77.60
2019-02-09T20:45:05.397Z,79.93
2019-02-09T20:47:37.928Z,82.13
2019-02-09T20:50:12.263Z,76.77
2019-02-09T20:52:44.734Z,75.70
2019-02-09T20:55:17.649Z,77.23
2019-02-09T20:57:49.958Z,85.60
2019-02-09T21:00:23.692Z,77.60
2019-02-09T21:02:58.164Z,75.40
2019-02-09T21:05:36.463Z,78.67
2019-02-09T21:08:06.335Z,72.63
2019-02-09T21:10:39.074Z,78.93
2019-02-09T21:13:11.681Z,81.63
2019-02-09T21:15:44.419Z,106.53
2019-02-09T21:18:16.907Z,93.00
2019-02-09T21:20:49.586Z,83.23
2019-02-09T21:23:22.616Z,93.00
2019-02-09T21:25:55.402Z,84.50
2019-02-09T21:28:27.949Z,79.20
2019-02-09T21:31:00.434Z,85.13
2019-02-09T21:33:34.434Z,104.13
2019-02-09T21:36:07.250Z,125.97
2019-02-09T21:38:39.923Z,122.83
2019-02-09T21:41:12.367Z,130.40
2019-02-09T21:43:46.493Z,85.37
2019-02-09T21:46:18.980Z,82.97
2019-02-09T21:48:51.436Z,83.70
2019-02-09T21:51:24.185Z,83.60
2019-02-09T21:53:56.779Z,78.33
2019-02-09T21:56:29.196Z,87.30
2019-02-09T21:59:02.690Z,82.73
2019-02-09T22:01:35.072Z,84.67
2019-02-09T22:04:07.641Z,84.40
2019-02-09T22:06:40.217Z,80.13
2019-02-09T22:09:12.918Z,81.10
2019-02-09T22:11:45.357Z,75.30
2019-02-09T22:14:17.858Z,76.87
2019-02-09T22:16:50.379Z,72.70
2019-02-09T22:19:24.437Z,78.77
2019-02-09T22:21:57.461Z,74.40
2019-02-09T22:24:30.102Z,80.50
2019-02-09T22:27:02.494Z,73.17
2019-02-09T22:29:35.357Z,76.50
2019-02-09T22:32:08.079Z,72.47
2019-02-09T22:34:40.578Z,82.53
2019-02-09T22:37:12.937Z,73.00
2019-02-09T22:39:45.998Z,79.07
2019-02-09T22:42:18.372Z,78.00
2019-02-09T22:44:50.874Z,75.70
2019-02-09T22:47:23.430Z,74.67
2019-02-09T22:49:56.052Z,77.17
2019-02-09T22:52:28.623Z,73.00
2019-02-09T22:55:01.528Z,73.10
2019-02-09T22:57:34.024Z,76.43
2019-02-09T23:00:36.977Z,75.30
2019-02-09T23:03:11.007Z,76.10
2019-02-09T23:06:51.551Z,75.73
2019-02-09T23:09:26.505Z,76.13
2019-02-09T23:11:59.248Z,77.47
2019-02-09T23:14:32.260Z,75.03
2019-02-09T23:17:04.962Z,74.20
2019-02-09T23:19:37.442Z,74.03
2019-02-09T23:22:10.191Z,74.53
2019-02-09T23:24:42.650Z,70.80
2019-02-09T23:27:16.228Z,76.63
2019-02-09T23:29:48.763Z,81.13
2019-02-09T23:32:21.397Z,76.13
2019-02-09T23:34:54.061Z,81.60
2019-02-09T23:37:26.490Z,76.00
2019-02-09T23:39:58.941Z,73.63
2019-02-09T23:42:31.354Z,75.17
2019-02-09T23:45:03.859Z,76.83
2019-02-09T23:47:36.570Z,80.83
2019-02-09T23:50:08.989Z,102.87
2019-02-09T23:52:41.666Z,93.30
2019-02-09T23:55:14.271Z,77.70
2019-02-09T23:57:46.906Z,78.43
